sensor_id;sensor_type;location;lat;lon;timestamp;pressure;altitude;pressure_sealevel;temperature;humidity
44825;BME280;30542;47.928;2.138;2023-07-30T00:04:51;100186.16;;;24.65;49.72
44825;BME280;30542;47.928;2.138;2023-07-30T00:09:52;100194.25;;;24.65;50.31
44825;BME280;30542;47.928;2.138;2023-07-30T00:14:52;100198.84;;;24.65;50.28
44825;BME280;30542;47.928;2.138;2023-07-30T00:19:52;100199.94;;;24.64;50.27
44825;BME280;30542;47.928;2.138;2023-07-30T00:24:53;100198.31;;;24.63;50.22
44825;BME280;30542;47.928;2.138;2023-07-30T00:29:53;100195.16;;;24.61;50.18
44825;BME280;30542;47.928;2.138;2023-07-30T00:34:53;100196.72;;;24.62;49.69
44825;BME280;30542;47.928;2.138;2023-07-30T00:39:54;100210.50;;;24.60;50.08
44825;BME280;30542;47.928;2.138;2023-07-30T00:44:54;100213.47;;;24.59;50.10
44825;BME280;30542;47.928;2.138;2023-07-30T00:49:55;100218.88;;;24.59;50.13
44825;BME280;30542;47.928;2.138;2023-07-30T00:54:57;100231.84;;;24.57;49.99
44825;BME280;30542;47.928;2.138;2023-07-30T00:59:57;100246.41;;;24.55;49.93
44825;BME280;30542;47.928;2.138;2023-07-30T01:04:58;100246.41;;;24.55;49.93
44825;BME280;30542;47.928;2.138;2023-07-30T01:10:01;100238.69;;;24.49;49.98
44825;BME280;30542;47.928;2.138;2023-07-30T01:15:04;100259.34;;;24.53;49.84
44825;BME280;30542;47.928;2.138;2023-07-30T01:20:05;100259.66;;;24.52;49.78
44825;BME280;30542;47.928;2.138;2023-07-30T01:25:05;100266.94;;;24.51;49.91
44825;BME280;30542;47.928;2.138;2023-07-30T01:30:18;100284.16;;;24.50;49.77
44825;BME280;30542;47.928;2.138;2023-07-30T01:35:26;100290.66;;;24.49;49.82
44825;BME280;30542;47.928;2.138;2023-07-30T01:40:27;100292.06;;;24.47;49.61
44825;BME280;30542;47.928;2.138;2023-07-30T01:45:27;100299.84;;;24.48;49.84
44825;BME280;30542;47.928;2.138;2023-07-30T01:50:27;100302.84;;;24.47;49.81
44825;BME280;30542;47.928;2.138;2023-07-30T01:55:28;100304.69;;;24.46;49.79
44825;BME280;30542;47.928;2.138;2023-07-30T02:00:28;100315.78;;;24.45;49.78
44825;BME280;30542;47.928;2.138;2023-07-30T02:05:28;100319.84;;;24.42;49.58
44825;BME280;30542;47.928;2.138;2023-07-30T02:10:29;100325.22;;;24.42;49.59
44825;BME280;30542;47.928;2.138;2023-07-30T02:15:29;100330.13;;;24.40;49.40
44825;BME280;30542;47.928;2.138;2023-07-30T02:20:29;100330.66;;;24.37;49.31
44825;BME280;30542;47.928;2.138;2023-07-30T02:25:30;100336.06;;;24.37;49.08
44825;BME280;30542;47.928;2.138;2023-07-30T02:30:30;100339.84;;;24.36;48.93
44825;BME280;30542;47.928;2.138;2023-07-30T02:35:30;100348.00;;;24.31;48.62
44825;BME280;30542;47.928;2.138;2023-07-30T02:40:31;100352.78;;;24.34;48.58
44825;BME280;30542;47.928;2.138;2023-07-30T02:45:31;100342.31;;;24.33;48.36
44825;BME280;30542;47.928;2.138;2023-07-30T02:50:32;100344.69;;;24.34;48.16
44825;BME280;30542;47.928;2.138;2023-07-30T02:55:32;100348.00;;;24.31;48.26
44825;BME280;30542;47.928;2.138;2023-07-30T03:00:32;100343.41;;;24.31;48.15
44825;BME280;30542;47.928;2.138;2023-07-30T03:05:33;100359.03;;;24.29;48.05
44825;BME280;30542;47.928;2.138;2023-07-30T03:10:33;100368.53;;;24.27;47.95
44825;BME280;30542;47.928;2.138;2023-07-30T03:15:33;100376.59;;;24.27;48.01
44825;BME280;30542;47.928;2.138;2023-07-30T03:20:34;100368.78;;;24.25;47.60
44825;BME280;30542;47.928;2.138;2023-07-30T03:25:34;100376.06;;;24.25;47.76
44825;BME280;30542;47.928;2.138;2023-07-30T03:30:34;100378.25;;;24.23;47.82
44825;BME280;30542;47.928;2.138;2023-07-30T03:35:35;100388.25;;;24.22;47.63
44825;BME280;30542;47.928;2.138;2023-07-30T03:40:35;100392.78;;;24.22;47.36
44825;BME280;30542;47.928;2.138;2023-07-30T03:45:35;100399.56;;;24.19;47.53
44825;BME280;30542;47.928;2.138;2023-07-30T03:50:36;100411.44;;;24.18;47.68
44825;BME280;30542;47.928;2.138;2023-07-30T03:55:36;100407.91;;;24.18;47.65
44825;BME280;30542;47.928;2.138;2023-07-30T04:00:37;100399.06;;;24.17;47.68
44825;BME280;30542;47.928;2.138;2023-07-30T04:05:37;100400.94;;;24.17;47.91
44825;BME280;30542;47.928;2.138;2023-07-30T04:10:37;100405.53;;;24.16;47.93
44825;BME280;30542;47.928;2.138;2023-07-30T04:15:38;100405.03;;;24.14;48.01
44825;BME280;30542;47.928;2.138;2023-07-30T04:20:38;100431.16;;;24.14;48.03
44825;BME280;30542;47.928;2.138;2023-07-30T04:25:38;100429.53;;;24.13;48.21
44825;BME280;30542;47.928;2.138;2023-07-30T04:30:39;100429.28;;;24.09;48.25
44825;BME280;30542;47.928;2.138;2023-07-30T04:35:39;100432.00;;;24.09;48.25
44825;BME280;30542;47.928;2.138;2023-07-30T04:40:40;100430.13;;;24.10;48.30
44825;BME280;30542;47.928;2.138;2023-07-30T04:45:40;100441.94;;;24.09;48.30
44825;BME280;30542;47.928;2.138;2023-07-30T04:50:40;100441.16;;;24.08;48.33
44825;BME280;30542;47.928;2.138;2023-07-30T04:55:42;100446.03;;;24.06;48.49
44825;BME280;30542;47.928;2.138;2023-07-30T05:00:43;100463.25;;;24.05;48.17
44825;BME280;30542;47.928;2.138;2023-07-30T05:05:43;100469.72;;;24.04;47.79
44825;BME280;30542;47.928;2.138;2023-07-30T05:10:44;100480.50;;;24.04;48.04
44825;BME280;30542;47.928;2.138;2023-07-30T05:15:44;100486.16;;;24.02;47.98
44825;BME280;30542;47.928;2.138;2023-07-30T05:20:47;100491.56;;;24.02;48.02
44825;BME280;30542;47.928;2.138;2023-07-30T05:25:48;100489.97;;;24.01;47.87
44825;BME280;30542;47.928;2.138;2023-07-30T05:30:48;100497.50;;;23.99;47.82
44825;BME280;30542;47.928;2.138;2023-07-30T05:35:48;100495.59;;;24.00;48.02
44825;BME280;30542;47.928;2.138;2023-07-30T05:40:48;100495.09;;;23.98;47.84
44825;BME280;30542;47.928;2.138;2023-07-30T05:45:49;100504.25;;;23.97;47.66
44825;BME280;30542;47.928;2.138;2023-07-30T05:50:49;100497.25;;;23.96;47.80
44825;BME280;30542;47.928;2.138;2023-07-30T05:55:50;100501.84;;;23.95;47.58
44825;BME280;30542;47.928;2.138;2023-07-30T06:00:50;100518.28;;;23.94;47.64
44825;BME280;30542;47.928;2.138;2023-07-30T06:05:51;100521.78;;;23.94;47.57
44825;BME280;30542;47.928;2.138;2023-07-30T06:10:51;100523.94;;;23.92;47.53
44825;BME280;30542;47.928;2.138;2023-07-30T06:15:51;100529.63;;;23.91;47.47
44825;BME280;30542;47.928;2.138;2023-07-30T06:20:52;100535.28;;;23.89;47.33
44825;BME280;30542;47.928;2.138;2023-07-30T06:25:52;100533.41;;;23.90;47.31
44825;BME280;30542;47.928;2.138;2023-07-30T06:30:52;100547.13;;;23.88;47.30
44825;BME280;30542;47.928;2.138;2023-07-30T06:35:53;100552.50;;;23.88;47.34
44825;BME280;30542;47.928;2.138;2023-07-30T06:40:53;100561.94;;;23.86;47.39
44825;BME280;30542;47.928;2.138;2023-07-30T06:45:53;100562.22;;;23.84;47.37
44825;BME280;30542;47.928;2.138;2023-07-30T06:50:54;100566.78;;;23.84;47.84
44825;BME280;30542;47.928;2.138;2023-07-30T06:55:55;100559.03;;;23.82;47.32
44825;BME280;30542;47.928;2.138;2023-07-30T07:00:55;100562.81;;;23.81;47.25
44825;BME280;30542;47.928;2.138;2023-07-30T07:05:56;100558.50;;;23.80;47.29
44825;BME280;30542;47.928;2.138;2023-07-30T07:10:56;100574.63;;;23.80;47.44
44825;BME280;30542;47.928;2.138;2023-07-30T07:15:56;100581.09;;;23.79;47.54
44825;BME280;30542;47.928;2.138;2023-07-30T07:20:57;100579.22;;;23.79;47.50
44825;BME280;30542;47.928;2.138;2023-07-30T07:25:57;100583.28;;;23.77;47.50
44825;BME280;30542;47.928;2.138;2023-07-30T07:30:57;100588.13;;;23.75;47.96
44825;BME280;30542;47.928;2.138;2023-07-30T07:36:07;100591.97;;;23.69;47.96
44825;BME280;30542;47.928;2.138;2023-07-30T07:41:14;100598.41;;;23.63;47.99
44825;BME280;30542;47.928;2.138;2023-07-30T07:46:15;100603.28;;;23.61;48.02
44825;BME280;30542;47.928;2.138;2023-07-30T07:51:15;100592.28;;;23.57;48.30
44825;BME280;30542;47.928;2.138;2023-07-30T07:56:16;100600.00;;;23.64;48.44
44825;BME280;30542;47.928;2.138;2023-07-30T08:01:16;100602.47;;;23.65;48.84
44825;BME280;30542;47.928;2.138;2023-07-30T08:06:16;100597.66;;;23.57;48.71
44825;BME280;30542;47.928;2.138;2023-07-30T08:11:17;100600.34;;;23.57;48.18
44825;BME280;30542;47.928;2.138;2023-07-30T08:16:17;100601.19;;;23.52;47.84
44825;BME280;30542;47.928;2.138;2023-07-30T08:21:17;100611.72;;;23.49;47.51
44825;BME280;30542;47.928;2.138;2023-07-30T08:26:20;100616.84;;;23.45;47.64
44825;BME280;30542;47.928;2.138;2023-07-30T08:31:20;100616.34;;;23.38;47.50
44825;BME280;30542;47.928;2.138;2023-07-30T08:36:20;100605.59;;;23.38;47.48
44825;BME280;30542;47.928;2.138;2023-07-30T08:41:21;100610.69;;;23.40;47.41
44825;BME280;30542;47.928;2.138;2023-07-30T08:46:21;100602.06;;;23.43;47.44
44825;BME280;30542;47.928;2.138;2023-07-30T08:51:22;100616.03;;;23.45;47.60
44825;BME280;30542;47.928;2.138;2023-07-30T08:56:22;100611.72;;;23.49;48.06
44825;BME280;30542;47.928;2.138;2023-07-30T09:01:29;100619.47;;;23.50;48.25
44825;BME280;30542;47.928;2.138;2023-07-30T09:06:32;100618.94;;;23.53;48.01
44825;BME280;30542;47.928;2.138;2023-07-30T09:11:32;100621.91;;;23.52;47.74
44825;BME280;30542;47.928;2.138;2023-07-30T09:16:33;100619.53;;;23.45;47.67
44825;BME280;30542;47.928;2.138;2023-07-30T09:21:34;100626.75;;;23.50;47.53
44825;BME280;30542;47.928;2.138;2023-07-30T09:26:45;100630.78;;;23.52;47.39
44825;BME280;30542;47.928;2.138;2023-07-30T09:31:47;100624.31;;;23.53;47.33
44825;BME280;30542;47.928;2.138;2023-07-30T09:36:50;100618.94;;;23.53;47.33
44825;BME280;30542;47.928;2.138;2023-07-30T09:41:52;100627.28;;;23.52;46.95
44825;BME280;30542;47.928;2.138;2023-07-30T09:46:53;100629.13;;;23.56;46.28
44825;BME280;30542;47.928;2.138;2023-07-30T09:51:53;100629.09;;;23.62;46.24
44825;BME280;30542;47.928;2.138;2023-07-30T09:56:54;100635.25;;;23.67;45.71
44825;BME280;30542;47.928;2.138;2023-07-30T10:01:55;100644.09;;;23.73;45.60
44825;BME280;30542;47.928;2.138;2023-07-30T10:06:58;100633.59;;;23.76;44.89
44825;BME280;30542;47.928;2.138;2023-07-30T10:12:01;100630.91;;;23.76;44.30
44825;BME280;30542;47.928;2.138;2023-07-30T10:17:04;100623.09;;;23.75;44.13
44825;BME280;30542;47.928;2.138;2023-07-30T10:27:23;100641.63;;;23.81;44.40
44825;BME280;30542;47.928;2.138;2023-07-30T10:32:37;100644.56;;;23.80;43.61
44825;BME280;30542;47.928;2.138;2023-07-30T10:37:45;100653.22;;;23.77;43.38
44825;BME280;30542;47.928;2.138;2023-07-30T10:42:46;100639.78;;;23.72;43.53
44825;BME280;30542;47.928;2.138;2023-07-30T10:47:47;100641.97;;;23.70;43.41
44825;BME280;30542;47.928;2.138;2023-07-30T10:52:47;100648.69;;;23.67;43.31
44825;BME280;30542;47.928;2.138;2023-07-30T10:57:47;100637.94;;;23.67;42.94
44825;BME280;30542;47.928;2.138;2023-07-30T11:02:54;100652.75;;;23.65;42.52
44825;BME280;30542;47.928;2.138;2023-07-30T11:07:55;100657.06;;;23.61;42.79
44825;BME280;30542;47.928;2.138;2023-07-30T11:12:57;100648.47;;;23.58;41.93
44825;BME280;30542;47.928;2.138;2023-07-30T11:17:57;100644.19;;;23.57;41.53
44825;BME280;30542;47.928;2.138;2023-07-30T11:22:58;100652.75;;;23.60;40.90
44825;BME280;30542;47.928;2.138;2023-07-30T11:27:58;100658.16;;;23.54;40.28
44825;BME280;30542;47.928;2.138;2023-07-30T11:32:59;100649.63;;;23.47;40.26
44825;BME280;30542;47.928;2.138;2023-07-30T11:37:59;100647.72;;;23.53;40.18
44825;BME280;30542;47.928;2.138;2023-07-30T11:43:00;100644.69;;;23.60;40.17
44825;BME280;30542;47.928;2.138;2023-07-30T11:48:08;100655.97;;;23.67;40.20
44825;BME280;30542;47.928;2.138;2023-07-30T11:53:09;100663.47;;;23.70;39.91
44825;BME280;30542;47.928;2.138;2023-07-30T11:58:12;100652.75;;;23.65;39.40
44825;BME280;30542;47.928;2.138;2023-07-30T12:03:13;100642.81;;;23.65;39.81
44825;BME280;30542;47.928;2.138;2023-07-30T12:08:16;100644.19;;;23.57;39.77
44825;BME280;30542;47.928;2.138;2023-07-30T12:13:18;100638.75;;;23.68;39.87
44825;BME280;30542;47.928;2.138;2023-07-30T12:18:19;100637.63;;;23.74;39.67
44825;BME280;30542;47.928;2.138;2023-07-30T12:23:20;100634.94;;;23.74;39.79
44825;BME280;30542;47.928;2.138;2023-07-30T12:28:21;100633.84;;;23.75;40.42
44825;BME280;30542;47.928;2.138;2023-07-30T12:33:21;100628.97;;;23.82;40.65
44825;BME280;30542;47.928;2.138;2023-07-30T12:38:21;100634.34;;;23.82;40.17
44825;BME280;30542;47.928;2.138;2023-07-30T12:43:22;100619.56;;;23.79;40.25
44825;BME280;30542;47.928;2.138;2023-07-30T12:48:22;100626.28;;;23.82;40.47
44825;BME280;30542;47.928;2.138;2023-07-30T12:53:22;100631.66;;;23.82;40.39
44825;BME280;30542;47.928;2.138;2023-07-30T12:58:22;100631.41;;;23.78;40.52
44825;BME280;30542;47.928;2.138;2023-07-30T13:03:23;100630.06;;;23.81;40.31
44825;BME280;30542;47.928;2.138;2023-07-30T13:08:23;100627.88;;;23.83;39.97
44825;BME280;30542;47.928;2.138;2023-07-30T13:13:25;100621.41;;;23.84;39.87
44825;BME280;30542;47.928;2.138;2023-07-30T13:18:25;100622.19;;;23.85;39.64
44825;BME280;30542;47.928;2.138;2023-07-30T13:23:25;100617.09;;;23.83;39.29
44825;BME280;30542;47.928;2.138;2023-07-30T13:28:26;100621.38;;;23.89;39.40
44825;BME280;30542;47.928;2.138;2023-07-30T13:33:26;100613.81;;;23.91;39.30
44825;BME280;30542;47.928;2.138;2023-07-30T13:38:26;100621.38;;;23.89;39.51
44825;BME280;30542;47.928;2.138;2023-07-30T13:43:28;100626.97;;;23.93;39.39
44825;BME280;30542;47.928;2.138;2023-07-30T13:48:28;100624.25;;;23.98;39.50
44825;BME280;30542;47.928;2.138;2023-07-30T13:53:29;100622.88;;;24.00;39.56
44825;BME280;30542;47.928;2.138;2023-07-30T13:58:29;100620.75;;;23.97;39.58
44825;BME280;30542;47.928;2.138;2023-07-30T14:03:29;100617.47;;;24.00;39.18
44825;BME280;30542;47.928;2.138;2023-07-30T14:08:30;100618.56;;;23.99;38.95
44825;BME280;30542;47.928;2.138;2023-07-30T14:13:30;100618.03;;;24.02;39.15
44825;BME280;30542;47.928;2.138;2023-07-30T14:18:31;100627.69;;;24.03;39.09
44825;BME280;30542;47.928;2.138;2023-07-30T14:23:31;100612.63;;;24.02;38.76
44825;BME280;30542;47.928;2.138;2023-07-30T14:28:32;100594.03;;;24.06;39.13
44825;BME280;30542;47.928;2.138;2023-07-30T14:33:32;100605.06;;;24.04;39.12
44825;BME280;30542;47.928;2.138;2023-07-30T14:38:33;100598.31;;;24.07;39.31
44825;BME280;30542;47.928;2.138;2023-07-30T14:43:34;100612.88;;;24.06;38.99
44825;BME280;30542;47.928;2.138;2023-07-30T14:48:34;100589.09;;;24.13;38.71
44825;BME280;30542;47.928;2.138;2023-07-30T14:53:35;100588.25;;;24.18;38.87
44825;BME280;30542;47.928;2.138;2023-07-30T14:58:35;100595.50;;;24.22;38.96
44825;BME280;30542;47.928;2.138;2023-07-30T15:03:35;100574.75;;;24.23;39.01
44825;BME280;30542;47.928;2.138;2023-07-30T15:08:36;100576.84;;;24.26;38.82
44825;BME280;30542;47.928;2.138;2023-07-30T15:13:36;100585.47;;;24.28;38.55
44825;BME280;30542;47.928;2.138;2023-07-30T15:18:36;100583.22;;;24.35;38.73
44825;BME280;30542;47.928;2.138;2023-07-30T15:23:36;100578.34;;;24.37;38.98
44825;BME280;30542;47.928;2.138;2023-07-30T15:28:37;100586.19;;;24.39;39.15
44825;BME280;30542;47.928;2.138;2023-07-30T15:33:37;100577.84;;;24.35;39.28
44825;BME280;30542;47.928;2.138;2023-07-30T15:38:37;100579.50;;;24.31;39.15
44825;BME280;30542;47.928;2.138;2023-07-30T15:43:38;100579.53;;;24.26;39.33
44825;BME280;30542;47.928;2.138;2023-07-30T15:48:40;100559.09;;;24.25;39.55
44825;BME280;30542;47.928;2.138;2023-07-30T15:53:41;100568.28;;;24.24;40.31
44825;BME280;30542;47.928;2.138;2023-07-30T15:58:43;100559.09;;;24.25;39.65
44825;BME280;30542;47.928;2.138;2023-07-30T16:03:43;100559.63;;;24.27;39.98
44825;BME280;30542;47.928;2.138;2023-07-30T16:08:44;100559.63;;;24.27;39.91
44825;BME280;30542;47.928;2.138;2023-07-30T16:13:44;100575.19;;;24.30;39.92
44825;BME280;30542;47.928;2.138;2023-07-30T16:18:47;100571.94;;;24.33;40.02
44825;BME280;30542;47.928;2.138;2023-07-30T16:23:48;100572.72;;;24.34;40.01
44825;BME280;30542;47.928;2.138;2023-07-30T16:28:48;100562.75;;;24.34;40.27
44825;BME280;30542;47.928;2.138;2023-07-30T16:33:48;100571.13;;;24.33;39.98
44825;BME280;30542;47.928;2.138;2023-07-30T16:38:48;100571.94;;;24.33;40.44
44825;BME280;30542;47.928;2.138;2023-07-30T16:43:49;100561.16;;;24.33;40.38
44825;BME280;30542;47.928;2.138;2023-07-30T16:48:49;100552.28;;;24.33;40.48
44825;BME280;30542;47.928;2.138;2023-07-30T16:53:49;100555.78;;;24.33;40.62
44825;BME280;30542;47.928;2.138;2023-07-30T16:58:50;100564.97;;;24.32;40.59
44825;BME280;30542;47.928;2.138;2023-07-30T17:03:50;100564.16;;;24.31;40.60
44825;BME280;30542;47.928;2.138;2023-07-30T17:08:50;100572.22;;;24.31;40.79
44825;BME280;30542;47.928;2.138;2023-07-30T17:13:51;100577.88;;;24.30;40.87
44825;BME280;30542;47.928;2.138;2023-07-30T17:18:54;100581.41;;;24.30;40.88
44825;BME280;30542;47.928;2.138;2023-07-30T17:23:54;100555.56;;;24.29;40.94
44825;BME280;30542;47.928;2.138;2023-07-30T17:28:54;100556.34;;;24.30;41.35
44825;BME280;30542;47.928;2.138;2023-07-30T17:33:55;100569.81;;;24.30;41.04
44825;BME280;30542;47.928;2.138;2023-07-30T17:38:55;100576.28;;;24.29;41.06
44825;BME280;30542;47.928;2.138;2023-07-30T17:43:56;100579.78;;;24.29;41.16
44825;BME280;30542;47.928;2.138;2023-07-30T17:48:56;100584.66;;;24.27;41.21
44825;BME280;30542;47.928;2.138;2023-07-30T17:53:56;100576.28;;;24.29;41.26
44825;BME280;30542;47.928;2.138;2023-07-30T17:58:58;100576.28;;;24.29;41.35
44825;BME280;30542;47.928;2.138;2023-07-30T18:03:58;100592.44;;;24.29;41.41
44825;BME280;30542;47.928;2.138;2023-07-30T18:08:59;100588.94;;;24.28;41.46
44825;BME280;30542;47.928;2.138;2023-07-30T18:14:00;100597.03;;;24.28;41.62
44825;BME280;30542;47.928;2.138;2023-07-30T18:19:00;100598.63;;;24.29;42.16
44825;BME280;30542;47.928;2.138;2023-07-30T18:24:00;100597.25;;;24.32;43.39
44825;BME280;30542;47.928;2.138;2023-07-30T18:29:01;100586.19;;;24.34;43.34
44825;BME280;30542;47.928;2.138;2023-07-30T18:34:01;100594.28;;;24.34;43.54
44825;BME280;30542;47.928;2.138;2023-07-30T18:39:01;100595.91;;;24.35;43.51
44825;BME280;30542;47.928;2.138;2023-07-30T18:44:02;100590.50;;;24.35;43.42
44825;BME280;30542;47.928;2.138;2023-07-30T18:49:02;100574.75;;;24.23;43.46
44825;BME280;30542;47.928;2.138;2023-07-30T18:54:03;100589.97;;;24.33;43.20
44825;BME280;30542;47.928;2.138;2023-07-30T18:59:03;100587.59;;;24.31;43.06
44825;BME280;30542;47.928;2.138;2023-07-30T19:04:03;100590.28;;;24.31;42.95
44825;BME280;30542;47.928;2.138;2023-07-30T19:09:04;100594.88;;;24.30;43.15
44825;BME280;30542;47.928;2.138;2023-07-30T19:14:04;100593.25;;;24.29;42.80
44825;BME280;30542;47.928;2.138;2023-07-30T19:19:04;100597.81;;;24.29;42.80
44825;BME280;30542;47.928;2.138;2023-07-30T19:24:05;100589.25;;;24.27;42.72
44825;BME280;30542;47.928;2.138;2023-07-30T19:29:06;100607.78;;;24.28;43.05
44825;BME280;30542;47.928;2.138;2023-07-30T19:34:10;100598.91;;;24.28;43.00
44825;BME280;30542;47.928;2.138;2023-07-30T19:39:10;100601.59;;;24.28;43.09
44825;BME280;30542;47.928;2.138;2023-07-30T19:44:11;100612.38;;;24.28;43.25
44825;BME280;30542;47.928;2.138;2023-07-30T19:49:11;100612.38;;;24.28;43.54
44825;BME280;30542;47.928;2.138;2023-07-30T19:54:12;100607.78;;;24.28;43.74
44825;BME280;30542;47.928;2.138;2023-07-30T19:59:12;100604.00;;;24.29;43.96
44825;BME280;30542;47.928;2.138;2023-07-30T20:04:13;100600.50;;;24.29;44.24
44825;BME280;30542;47.928;2.138;2023-07-30T20:09:13;100606.19;;;24.27;44.41
44825;BME280;30542;47.928;2.138;2023-07-30T20:14:13;100596.31;;;24.18;44.50
44825;BME280;30542;47.928;2.138;2023-07-30T20:19:14;100607.00;;;24.28;44.61
44825;BME280;30542;47.928;2.138;2023-07-30T20:24:17;100621.56;;;24.27;44.65
44825;BME280;30542;47.928;2.138;2023-07-30T20:29:17;100626.13;;;24.26;44.80
44825;BME280;30542;47.928;2.138;2023-07-30T20:34:20;100628.53;;;24.28;44.85
44825;BME280;30542;47.928;2.138;2023-07-30T20:39:20;100617.22;;;24.26;45.07
44825;BME280;30542;47.928;2.138;2023-07-30T20:44:20;100613.75;;;24.25;44.92
44825;BME280;30542;47.928;2.138;2023-07-30T20:49:21;100609.69;;;24.28;44.95
44825;BME280;30542;47.928;2.138;2023-07-30T20:54:21;100604.00;;;24.29;44.97
44825;BME280;30542;47.928;2.138;2023-07-30T20:59:21;100587.06;;;24.29;45.29
44825;BME280;30542;47.928;2.138;2023-07-30T21:04:22;100574.47;;;24.24;45.53
44825;BME280;30542;47.928;2.138;2023-07-30T21:09:22;100575.25;;;24.25;45.50
44825;BME280;30542;47.928;2.138;2023-07-30T21:14:23;100597.81;;;24.29;45.39
44825;BME280;30542;47.928;2.138;2023-07-30T21:19:24;100597.81;;;24.29;45.42
44825;BME280;30542;47.928;2.138;2023-07-30T21:24:25;100594.34;;;24.28;45.54
44825;BME280;30542;47.928;2.138;2023-07-30T21:29:25;100585.47;;;24.28;45.58
44825;BME280;30542;47.928;2.138;2023-07-30T21:34:26;100584.66;;;24.27;45.38
44825;BME280;30542;47.928;2.138;2023-07-30T21:39:26;100583.88;;;24.27;45.50
44825;BME280;30542;47.928;2.138;2023-07-30T21:44:26;100582.22;;;24.26;45.57
44825;BME280;30542;47.928;2.138;2023-07-30T21:49:28;100572.28;;;24.26;45.64
44825;BME280;30542;47.928;2.138;2023-07-30T21:54:28;100578.47;;;24.27;45.56
44825;BME280;30542;47.928;2.138;2023-07-30T21:59:28;100567.97;;;24.25;45.60
44825;BME280;30542;47.928;2.138;2023-07-30T22:04:29;100559.91;;;24.25;45.65
44825;BME280;30542;47.928;2.138;2023-07-30T22:09:29;100558.31;;;24.24;45.65
44825;BME280;30542;47.928;2.138;2023-07-30T22:14:29;100555.31;;;24.26;45.71
44825;BME280;30542;47.928;2.138;2023-07-30T22:19:30;100564.50;;;24.25;45.75
44825;BME280;30542;47.928;2.138;2023-07-30T22:24:30;100558.00;;;24.26;45.73
44825;BME280;30542;47.928;2.138;2023-07-30T22:29:30;100548.34;;;24.25;45.75
44825;BME280;30542;47.928;2.138;2023-07-30T22:34:31;100553.72;;;24.25;45.90
44825;BME280;30542;47.928;2.138;2023-07-30T22:39:31;100548.34;;;24.25;45.84
44825;BME280;30542;47.928;2.138;2023-07-30T22:44:31;100544.06;;;24.24;45.82
44825;BME280;30542;47.928;2.138;2023-07-30T22:49:32;100541.34;;;24.24;45.83
44825;BME280;30542;47.928;2.138;2023-07-30T22:54:32;100532.56;;;24.18;45.97
44825;BME280;30542;47.928;2.138;2023-07-30T22:59:33;100535.97;;;24.24;46.02
44825;BME280;30542;47.928;2.138;2023-07-30T23:04:33;100537.88;;;24.23;45.96
44825;BME280;30542;47.928;2.138;2023-07-30T23:09:33;100535.19;;;24.23;45.95
44825;BME280;30542;47.928;2.138;2023-07-30T23:14:34;100534.38;;;24.23;46.02
44825;BME280;30542;47.928;2.138;2023-07-30T23:19:34;100533.59;;;24.22;46.03
44825;BME280;30542;47.928;2.138;2023-07-30T23:24:34;100535.19;;;24.23;46.05
44825;BME280;30542;47.928;2.138;2023-07-30T23:29:34;100528.19;;;24.22;46.07
44825;BME280;30542;47.928;2.138;2023-07-30T23:34:35;100522.81;;;24.22;46.05
44825;BME280;30542;47.928;2.138;2023-07-30T23:39:35;100528.19;;;24.22;46.19
44825;BME280;30542;47.928;2.138;2023-07-30T23:44:35;100512.06;;;24.22;46.09
44825;BME280;30542;47.928;2.138;2023-07-30T23:49:36;100517.44;;;24.22;46.14
44825;BME280;30542;47.928;2.138;2023-07-30T23:54:36;100522.81;;;24.22;46.16
44825;BME280;30542;47.928;2.138;2023-07-30T23:59:36;100507.81;;;24.16;46.18
